sensor_id;sensor_type;location;lat;lon;timestamp;temperature;humidity
71047;SHT31;58703;48.978;8.982;2022-11-25T00:01:22;-0.30;99.99
71047;SHT31;58703;48.978;8.982;2022-11-25T00:03:50;-0.31;99.99
71047;SHT31;58703;48.978;8.982;2022-11-25T00:08:47;-0.64;99.99
71047;SHT31;58703;48.978;8.982;2022-11-25T00:11:16;-0.81;99.99
71047;SHT31;58703;48.978;8.982;2022-11-25T00:13:42;-0.89;99.99
71047;SHT31;58703;48.978;8.982;2022-11-25T00:16:10;-0.71;99.99
71047;SHT31;58703;48.978;8.982;2022-11-25T00:18:36;-0.72;99.99
71047;SHT31;58703;48.978;8.982;2022-11-25T00:21:07;-0.74;99.99
71047;SHT31;58703;48.978;8.982;2022-11-25T00:23:33;-0.79;99.99
71047;SHT31;58703;48.978;8.982;2022-11-25T00:28:33;-0.95;99.99
71047;SHT31;58703;48.978;8.982;2022-11-25T00:31:40;-0.86;99.99
71047;SHT31;58703;48.978;8.982;2022-11-25T00:34:00;-0.88;99.99
71047;SHT31;58703;48.978;8.982;2022-11-25T00:36:29;-0.66;99.99
71047;SHT31;58703;48.978;8.982;2022-11-25T00:38:57;-0.57;99.99
71047;SHT31;58703;48.978;8.982;2022-11-25T00:41:24;-0.64;99.99
71047;SHT31;58703;48.978;8.982;2022-11-25T00:44:11;-0.47;99.99
71047;SHT31;58703;48.978;8.982;2022-11-25T00:46:56;-0.54;99.99
71047;SHT31;58703;48.978;8.982;2022-11-25T00:49:22;-0.57;99.99
71047;SHT31;58703;48.978;8.982;2022-11-25T00:51:47;-0.54;99.99
71047;SHT31;58703;48.978;8.982;2022-11-25T00:54:13;-0.54;99.99
71047;SHT31;58703;48.978;8.982;2022-11-25T00:56:38;-0.50;99.99
71047;SHT31;58703;48.978;8.982;2022-11-25T00:59:08;-0.50;99.99
71047;SHT31;58703;48.978;8.982;2022-11-25T01:01:34;-0.42;99.99
71047;SHT31;58703;48.978;8.982;2022-11-25T01:04:01;-0.45;99.99
71047;SHT31;58703;48.978;8.982;2022-11-25T01:06:26;-0.54;99.99
71047;SHT31;58703;48.978;8.982;2022-11-25T01:08:52;-0.48;99.99
71047;SHT31;58703;48.978;8.982;2022-11-25T01:11:20;-0.35;99.99
71047;SHT31;58703;48.978;8.982;2022-11-25T01:13:46;-0.40;99.99
71047;SHT31;58703;48.978;8.982;2022-11-25T01:16:15;-0.42;99.99
71047;SHT31;58703;48.978;8.982;2022-11-25T01:18:42;-0.31;99.99
71047;SHT31;58703;48.978;8.982;2022-11-25T01:21:11;-0.55;99.99
71047;SHT31;58703;48.978;8.982;2022-11-25T01:23:37;-0.71;99.99
71047;SHT31;58703;48.978;8.982;2022-11-25T01:26:05;-0.66;99.99
71047;SHT31;58703;48.978;8.982;2022-11-25T01:28:31;-0.50;99.99
71047;SHT31;58703;48.978;8.982;2022-11-25T01:33:33;-0.18;99.99
71047;SHT31;58703;48.978;8.982;2022-11-25T01:36:00;-0.17;99.99
71047;SHT31;58703;48.978;8.982;2022-11-25T01:38:27;-0.17;99.99
71047;SHT31;58703;48.978;8.982;2022-11-25T01:40:52;-0.31;99.99
71047;SHT31;58703;48.978;8.982;2022-11-25T01:43:18;-0.28;99.99
71047;SHT31;58703;48.978;8.982;2022-11-25T01:45:43;-0.31;99.99
71047;SHT31;58703;48.978;8.982;2022-11-25T01:48:17;-0.38;99.99
71047;SHT31;58703;48.978;8.982;2022-11-25T01:50:44;-0.47;99.99
71047;SHT31;58703;48.978;8.982;2022-11-25T01:53:12;-0.52;99.99
71047;SHT31;58703;48.978;8.982;2022-11-25T01:55:43;-0.44;99.99
71047;SHT31;58703;48.978;8.982;2022-11-25T01:58:16;-0.35;99.99
71047;SHT31;58703;48.978;8.982;2022-11-25T02:00:43;-0.27;99.99
71047;SHT31;58703;48.978;8.982;2022-11-25T02:03:22;-0.30;99.99
71047;SHT31;58703;48.978;8.982;2022-11-25T02:05:55;-0.20;99.99
71047;SHT31;58703;48.978;8.982;2022-11-25T02:08:23;-0.15;99.99
71047;SHT31;58703;48.978;8.982;2022-11-25T02:10:52;-0.11;99.99
71047;SHT31;58703;48.978;8.982;2022-11-25T02:13:19;-0.11;99.99
71047;SHT31;58703;48.978;8.982;2022-11-25T02:15:45;-0.13;99.99
71047;SHT31;58703;48.978;8.982;2022-11-25T02:18:12;-0.03;99.99
71047;SHT31;58703;48.978;8.982;2022-11-25T02:20:38;0.06;99.99
71047;SHT31;58703;48.978;8.982;2022-11-25T02:23:20;0.17;99.99
71047;SHT31;58703;48.978;8.982;2022-11-25T02:25:51;0.32;99.99
71047;SHT31;58703;48.978;8.982;2022-11-25T02:28:20;0.24;99.99
71047;SHT31;58703;48.978;8.982;2022-11-25T02:30:47;0.22;99.99
71047;SHT31;58703;48.978;8.982;2022-11-25T02:33:13;0.21;99.99
71047;SHT31;58703;48.978;8.982;2022-11-25T02:38:28;0.20;99.99
71047;SHT31;58703;48.978;8.982;2022-11-25T02:41:14;0.31;99.99
71047;SHT31;58703;48.978;8.982;2022-11-25T02:43:40;0.32;99.99
71047;SHT31;58703;48.978;8.982;2022-11-25T02:46:17;0.34;99.99
71047;SHT31;58703;48.978;8.982;2022-11-25T02:48:43;0.17;99.99
71047;SHT31;58703;48.978;8.982;2022-11-25T02:51:13;0.27;99.99
71047;SHT31;58703;48.978;8.982;2022-11-25T02:53:39;0.17;99.99
71047;SHT31;58703;48.978;8.982;2022-11-25T02:56:06;0.09;99.99
71047;SHT31;58703;48.978;8.982;2022-11-25T02:58:31;0.06;99.99
71047;SHT31;58703;48.978;8.982;2022-11-25T03:00:57;-0.03;99.99
71047;SHT31;58703;48.978;8.982;2022-11-25T03:03:22;-0.07;99.99
71047;SHT31;58703;48.978;8.982;2022-11-25T03:05:49;0.01;99.99
71047;SHT31;58703;48.978;8.982;2022-11-25T03:08:15;0.15;99.99
71047;SHT31;58703;48.978;8.982;2022-11-25T03:10:42;0.25;99.99
71047;SHT31;58703;48.978;8.982;2022-11-25T03:13:08;0.27;99.99
71047;SHT31;58703;48.978;8.982;2022-11-25T03:15:35;0.20;99.99
71047;SHT31;58703;48.978;8.982;2022-11-25T03:18:03;0.04;99.99
71047;SHT31;58703;48.978;8.982;2022-11-25T03:20:28;-0.04;99.99
71047;SHT31;58703;48.978;8.982;2022-11-25T03:22:55;-0.06;99.99
71047;SHT31;58703;48.978;8.982;2022-11-25T03:25:21;-0.11;99.99
71047;SHT31;58703;48.978;8.982;2022-11-25T03:27:46;-0.01;99.99
71047;SHT31;58703;48.978;8.982;2022-11-25T03:30:24;0.11;99.99
71047;SHT31;58703;48.978;8.982;2022-11-25T03:32:50;0.27;99.99
71047;SHT31;58703;48.978;8.982;2022-11-25T03:35:17;0.50;99.99
71047;SHT31;58703;48.978;8.982;2022-11-25T03:37:44;0.62;99.99
71047;SHT31;58703;48.978;8.982;2022-11-25T03:40:13;0.52;99.99
71047;SHT31;58703;48.978;8.982;2022-11-25T03:42:39;0.37;99.99
71047;SHT31;58703;48.978;8.982;2022-11-25T03:45:06;0.60;99.99
71047;SHT31;58703;48.978;8.982;2022-11-25T03:47:32;0.73;99.99
71047;SHT31;58703;48.978;8.982;2022-11-25T03:49:57;0.79;99.99
71047;SHT31;58703;48.978;8.982;2022-11-25T03:52:23;0.58;99.99
71047;SHT31;58703;48.978;8.982;2022-11-25T03:54:50;0.44;99.99
71047;SHT31;58703;48.978;8.982;2022-11-25T03:57:16;0.51;99.99
71047;SHT31;58703;48.978;8.982;2022-11-25T03:59:42;0.65;99.99
71047;SHT31;58703;48.978;8.982;2022-11-25T04:02:07;0.62;99.99
71047;SHT31;58703;48.978;8.982;2022-11-25T04:04:33;0.52;99.99
71047;SHT31;58703;48.978;8.982;2022-11-25T04:06:59;0.52;99.99
71047;SHT31;58703;48.978;8.982;2022-11-25T04:09:25;0.69;99.99
71047;SHT31;58703;48.978;8.982;2022-11-25T04:11:51;0.79;99.99
71047;SHT31;58703;48.978;8.982;2022-11-25T04:14:35;0.86;99.99
71047;SHT31;58703;48.978;8.982;2022-11-25T04:17:01;0.89;99.99
71047;SHT31;58703;48.978;8.982;2022-11-25T04:19:26;0.96;99.99
71047;SHT31;58703;48.978;8.982;2022-11-25T04:21:52;1.00;99.99
71047;SHT31;58703;48.978;8.982;2022-11-25T04:24:20;1.12;99.99
71047;SHT31;58703;48.978;8.982;2022-11-25T04:26:45;1.15;99.99
71047;SHT31;58703;48.978;8.982;2022-11-25T04:29:11;1.12;99.99
71047;SHT31;58703;48.978;8.982;2022-11-25T04:31:36;1.17;99.99
71047;SHT31;58703;48.978;8.982;2022-11-25T04:34:03;1.15;99.99
71047;SHT31;58703;48.978;8.982;2022-11-25T04:36:29;1.15;99.99
71047;SHT31;58703;48.978;8.982;2022-11-25T04:38:55;1.23;99.99
71047;SHT31;58703;48.978;8.982;2022-11-25T04:41:22;1.23;99.99
71047;SHT31;58703;48.978;8.982;2022-11-25T04:43:47;1.34;99.99
71047;SHT31;58703;48.978;8.982;2022-11-25T04:46:18;1.37;99.99
71047;SHT31;58703;48.978;8.982;2022-11-25T04:48:45;1.37;99.99
71047;SHT31;58703;48.978;8.982;2022-11-25T04:51:11;1.44;99.99
71047;SHT31;58703;48.978;8.982;2022-11-25T04:53:37;1.44;99.99
71047;SHT31;58703;48.978;8.982;2022-11-25T04:56:05;1.47;99.99
71047;SHT31;58703;48.978;8.982;2022-11-25T04:58:30;1.42;99.99
71047;SHT31;58703;48.978;8.982;2022-11-25T05:01:16;1.42;99.99
71047;SHT31;58703;48.978;8.982;2022-11-25T05:03:41;1.42;99.99
71047;SHT31;58703;48.978;8.982;2022-11-25T05:06:08;1.37;99.99
71047;SHT31;58703;48.978;8.982;2022-11-25T05:08:34;1.34;99.99
71047;SHT31;58703;48.978;8.982;2022-11-25T05:11:01;1.33;99.99
71047;SHT31;58703;48.978;8.982;2022-11-25T05:13:27;1.34;99.99
71047;SHT31;58703;48.978;8.982;2022-11-25T05:15:52;1.39;99.99
71047;SHT31;58703;48.978;8.982;2022-11-25T05:18:18;1.37;99.99
71047;SHT31;58703;48.978;8.982;2022-11-25T05:20:43;1.36;99.99
71047;SHT31;58703;48.978;8.982;2022-11-25T05:23:09;1.32;99.99
71047;SHT31;58703;48.978;8.982;2022-11-25T05:25:35;1.29;99.99
71047;SHT31;58703;48.978;8.982;2022-11-25T05:28:02;1.20;99.99
71047;SHT31;58703;48.978;8.982;2022-11-25T05:30:29;1.22;99.99
71047;SHT31;58703;48.978;8.982;2022-11-25T05:32:54;1.20;99.99
71047;SHT31;58703;48.978;8.982;2022-11-25T05:35:20;1.24;99.99
71047;SHT31;58703;48.978;8.982;2022-11-25T05:37:46;1.24;99.99
71047;SHT31;58703;48.978;8.982;2022-11-25T05:40:12;1.29;99.99
71047;SHT31;58703;48.978;8.982;2022-11-25T05:42:39;1.33;99.99
71047;SHT31;58703;48.978;8.982;2022-11-25T05:45:06;1.42;99.99
71047;SHT31;58703;48.978;8.982;2022-11-25T05:47:33;1.44;99.99
71047;SHT31;58703;48.978;8.982;2022-11-25T05:49:58;1.46;99.99
71047;SHT31;58703;48.978;8.982;2022-11-25T05:52:25;1.51;99.99
71047;SHT31;58703;48.978;8.982;2022-11-25T05:54:51;1.50;99.99
71047;SHT31;58703;48.978;8.982;2022-11-25T05:57:16;1.58;99.99
71047;SHT31;58703;48.978;8.982;2022-11-25T05:59:43;1.61;99.99
71047;SHT31;58703;48.978;8.982;2022-11-25T06:02:10;1.56;99.99
71047;SHT31;58703;48.978;8.982;2022-11-25T06:04:36;1.54;99.99
71047;SHT31;58703;48.978;8.982;2022-11-25T06:07:01;1.50;99.99
71047;SHT31;58703;48.978;8.982;2022-11-25T06:09:27;1.56;99.99
71047;SHT31;58703;48.978;8.982;2022-11-25T06:11:52;1.42;99.99
71047;SHT31;58703;48.978;8.982;2022-11-25T06:14:19;1.43;99.99
71047;SHT31;58703;48.978;8.982;2022-11-25T06:16:44;1.36;99.99
71047;SHT31;58703;48.978;8.982;2022-11-25T06:19:10;1.27;99.99
71047;SHT31;58703;48.978;8.982;2022-11-25T06:21:35;1.26;99.99
71047;SHT31;58703;48.978;8.982;2022-11-25T06:24:01;1.32;99.99
71047;SHT31;58703;48.978;8.982;2022-11-25T06:26:26;1.24;99.99
71047;SHT31;58703;48.978;8.982;2022-11-25T06:28:53;1.23;99.99
71047;SHT31;58703;48.978;8.982;2022-11-25T06:31:23;1.17;99.99
71047;SHT31;58703;48.978;8.982;2022-11-25T06:33:51;1.19;99.99
71047;SHT31;58703;48.978;8.982;2022-11-25T06:36:18;1.13;99.99
71047;SHT31;58703;48.978;8.982;2022-11-25T06:38:46;1.15;99.99
71047;SHT31;58703;48.978;8.982;2022-11-25T06:41:12;1.16;99.99
71047;SHT31;58703;48.978;8.982;2022-11-25T06:43:38;1.16;99.99
71047;SHT31;58703;48.978;8.982;2022-11-25T06:46:06;1.20;99.99
71047;SHT31;58703;48.978;8.982;2022-11-25T06:48:32;1.13;99.99
71047;SHT31;58703;48.978;8.982;2022-11-25T06:50:59;0.95;99.99
71047;SHT31;58703;48.978;8.982;2022-11-25T06:53:26;0.91;99.99
71047;SHT31;58703;48.978;8.982;2022-11-25T06:58:28;0.62;99.99
71047;SHT31;58703;48.978;8.982;2022-11-25T07:01:31;0.61;99.99
71047;SHT31;58703;48.978;8.982;2022-11-25T07:04:04;0.72;99.99
71047;SHT31;58703;48.978;8.982;2022-11-25T07:06:31;0.75;99.99
71047;SHT31;58703;48.978;8.982;2022-11-25T07:08:58;0.81;99.99
71047;SHT31;58703;48.978;8.982;2022-11-25T07:11:34;0.89;99.99
71047;SHT31;58703;48.978;8.982;2022-11-25T07:14:04;1.06;99.99
71047;SHT31;58703;48.978;8.982;2022-11-25T07:16:30;1.30;99.99
71047;SHT31;58703;48.978;8.982;2022-11-25T07:19:00;1.48;99.99
71047;SHT31;58703;48.978;8.982;2022-11-25T07:21:27;1.63;99.99
71047;SHT31;58703;48.978;8.982;2022-11-25T07:23:54;1.53;99.99
71047;SHT31;58703;48.978;8.982;2022-11-25T07:26:22;1.53;99.99
71047;SHT31;58703;48.978;8.982;2022-11-25T07:28:50;1.64;99.99
71047;SHT31;58703;48.978;8.982;2022-11-25T07:33:44;1.94;99.99
71047;SHT31;58703;48.978;8.982;2022-11-25T07:36:12;2.18;99.99
71047;SHT31;58703;48.978;8.982;2022-11-25T07:38:38;2.38;99.99
71047;SHT31;58703;48.978;8.982;2022-11-25T07:41:13;2.49;99.99
71047;SHT31;58703;48.978;8.982;2022-11-25T07:43:39;2.38;99.99
71047;SHT31;58703;48.978;8.982;2022-11-25T07:46:12;2.29;99.99
71047;SHT31;58703;48.978;8.982;2022-11-25T07:48:39;2.11;99.99
71047;SHT31;58703;48.978;8.982;2022-11-25T07:51:46;1.87;99.99
71047;SHT31;58703;48.978;8.982;2022-11-25T07:54:07;1.75;99.99
71047;SHT31;58703;48.978;8.982;2022-11-25T07:56:35;1.87;99.99
71047;SHT31;58703;48.978;8.982;2022-11-25T07:59:02;2.07;99.99
71047;SHT31;58703;48.978;8.982;2022-11-25T08:01:28;1.97;99.99
71047;SHT31;58703;48.978;8.982;2022-11-25T08:03:54;2.22;99.99
71047;SHT31;58703;48.978;8.982;2022-11-25T08:06:24;2.48;99.99
71047;SHT31;58703;48.978;8.982;2022-11-25T08:08:52;2.36;99.99
71047;SHT31;58703;48.978;8.982;2022-11-25T08:11:38;2.33;99.99
71047;SHT31;58703;48.978;8.982;2022-11-25T08:14:04;2.38;99.99
71047;SHT31;58703;48.978;8.982;2022-11-25T08:16:31;2.46;99.99
71047;SHT31;58703;48.978;8.982;2022-11-25T08:18:58;2.40;99.99
71047;SHT31;58703;48.978;8.982;2022-11-25T08:21:25;2.40;99.99
71047;SHT31;58703;48.978;8.982;2022-11-25T08:23:51;2.25;99.99
71047;SHT31;58703;48.978;8.982;2022-11-25T08:28:44;2.24;99.99
71047;SHT31;58703;48.978;8.982;2022-11-25T08:31:17;2.39;99.99
71047;SHT31;58703;48.978;8.982;2022-11-25T08:33:44;2.42;99.99
71047;SHT31;58703;48.978;8.982;2022-11-25T08:36:10;2.54;99.99
71047;SHT31;58703;48.978;8.982;2022-11-25T08:38:37;2.64;99.99
71047;SHT31;58703;48.978;8.982;2022-11-25T08:41:11;2.83;99.99
71047;SHT31;58703;48.978;8.982;2022-11-25T08:43:37;2.90;99.99
71047;SHT31;58703;48.978;8.982;2022-11-25T08:46:07;2.87;99.99
71047;SHT31;58703;48.978;8.982;2022-11-25T08:48:33;3.04;99.99
71047;SHT31;58703;48.978;8.982;2022-11-25T08:50:58;3.24;99.99
71047;SHT31;58703;48.978;8.982;2022-11-25T08:53:24;3.39;99.99
71047;SHT31;58703;48.978;8.982;2022-11-25T08:55:50;3.50;99.99
71047;SHT31;58703;48.978;8.982;2022-11-25T08:58:15;3.92;99.99
71047;SHT31;58703;48.978;8.982;2022-11-25T09:00:43;4.26;99.99
71047;SHT31;58703;48.978;8.982;2022-11-25T09:03:09;4.46;99.14
71047;SHT31;58703;48.978;8.982;2022-11-25T09:05:39;4.44;99.07
71047;SHT31;58703;48.978;8.982;2022-11-25T09:08:06;4.64;98.92
71047;SHT31;58703;48.978;8.982;2022-11-25T09:10:33;4.87;99.44
71047;SHT31;58703;48.978;8.982;2022-11-25T09:13:00;4.99;99.02
71047;SHT31;58703;48.978;8.982;2022-11-25T09:15:26;4.81;97.71
71047;SHT31;58703;48.978;8.982;2022-11-25T09:18:03;4.54;96.75
71047;SHT31;58703;48.978;8.982;2022-11-25T09:20:31;4.85;98.47
71047;SHT31;58703;48.978;8.982;2022-11-25T09:23:00;5.05;98.18
71047;SHT31;58703;48.978;8.982;2022-11-25T09:25:27;4.74;97.20
71047;SHT31;58703;48.978;8.982;2022-11-25T09:27:57;4.58;97.20
71047;SHT31;58703;48.978;8.982;2022-11-25T09:30:23;4.57;97.54
71047;SHT31;58703;48.978;8.982;2022-11-25T09:32:50;4.58;97.65
71047;SHT31;58703;48.978;8.982;2022-11-25T09:35:17;4.54;97.76
71047;SHT31;58703;48.978;8.982;2022-11-25T09:37:43;4.64;98.40
71047;SHT31;58703;48.978;8.982;2022-11-25T09:40:42;4.47;98.09
71047;SHT31;58703;48.978;8.982;2022-11-25T09:49:28;4.68;98.02
71047;SHT31;58703;48.978;8.982;2022-11-25T09:52:11;4.72;98.07
71047;SHT31;58703;48.978;8.982;2022-11-25T09:54:41;5.11;99.51
71047;SHT31;58703;48.978;8.982;2022-11-25T10:02:57;5.49;99.99
71047;SHT31;58703;48.978;8.982;2022-11-25T10:05:32;5.63;99.95
71047;SHT31;58703;48.978;8.982;2022-11-25T10:08:07;5.42;98.28
71047;SHT31;58703;48.978;8.982;2022-11-25T10:10:45;5.30;98.00
71047;SHT31;58703;48.978;8.982;2022-11-25T10:13:18;5.43;98.43
71047;SHT31;58703;48.978;8.982;2022-11-25T10:15:48;5.32;97.77
71047;SHT31;58703;48.978;8.982;2022-11-25T10:18:22;5.61;99.10
71047;SHT31;58703;48.978;8.982;2022-11-25T10:20:51;5.71;96.75
71047;SHT31;58703;48.978;8.982;2022-11-25T10:23:37;5.93;97.26
71047;SHT31;58703;48.978;8.982;2022-11-25T10:26:13;6.10;96.63
71047;SHT31;58703;48.978;8.982;2022-11-25T10:28:43;5.94;95.76
71047;SHT31;58703;48.978;8.982;2022-11-25T10:31:24;6.08;96.78
71047;SHT31;58703;48.978;8.982;2022-11-25T10:33:55;5.91;95.35
71047;SHT31;58703;48.978;8.982;2022-11-25T10:36:29;5.86;96.51
71047;SHT31;58703;48.978;8.982;2022-11-25T10:41:37;6.13;96.13
71047;SHT31;58703;48.978;8.982;2022-11-25T10:44:18;5.95;95.48
71047;SHT31;58703;48.978;8.982;2022-11-25T10:49:41;6.25;97.17
71047;SHT31;58703;48.978;8.982;2022-11-25T10:52:12;6.10;96.39
71047;SHT31;58703;48.978;8.982;2022-11-25T10:54:37;5.94;96.43
71047;SHT31;58703;48.978;8.982;2022-11-25T10:57:16;5.77;97.20
71047;SHT31;58703;48.978;8.982;2022-11-25T10:59:54;5.67;97.58
71047;SHT31;58703;48.978;8.982;2022-11-25T11:02:37;5.81;97.95
71047;SHT31;58703;48.978;8.982;2022-11-25T11:07:36;5.97;97.96
71047;SHT31;58703;48.978;8.982;2022-11-25T11:10:23;6.11;98.06
71047;SHT31;58703;48.978;8.982;2022-11-25T11:13:19;6.11;97.80
71047;SHT31;58703;48.978;8.982;2022-11-25T11:15:46;6.29;98.31
71047;SHT31;58703;48.978;8.982;2022-11-25T11:20:47;6.24;98.11
71047;SHT31;58703;48.978;8.982;2022-11-25T11:23:13;6.26;98.30
71047;SHT31;58703;48.978;8.982;2022-11-25T11:25:41;6.07;97.60
71047;SHT31;58703;48.978;8.982;2022-11-25T11:28:28;6.11;97.45
71047;SHT31;58703;48.978;8.982;2022-11-25T11:47:24;5.97;99.72
71047;SHT31;58703;48.978;8.982;2022-11-25T11:55:37;6.21;99.99
71047;SHT31;58703;48.978;8.982;2022-11-25T12:01:19;6.50;99.99
71047;SHT31;58703;48.978;8.982;2022-11-25T12:04:00;6.64;99.87
71047;SHT31;58703;48.978;8.982;2022-11-25T12:06:30;6.68;99.99
71047;SHT31;58703;48.978;8.982;2022-11-25T12:09:12;6.44;99.54
71047;SHT31;58703;48.978;8.982;2022-11-25T12:11:43;6.32;99.90
71047;SHT31;58703;48.978;8.982;2022-11-25T12:14:35;6.29;99.99
71047;SHT31;58703;48.978;8.982;2022-11-25T12:17:08;6.24;99.99
71047;SHT31;58703;48.978;8.982;2022-11-25T12:19:46;6.22;99.99
71047;SHT31;58703;48.978;8.982;2022-11-25T12:23:10;6.21;99.99
71047;SHT31;58703;48.978;8.982;2022-11-25T12:25:40;6.22;99.99
71047;SHT31;58703;48.978;8.982;2022-11-25T12:28:14;6.41;99.99
71047;SHT31;58703;48.978;8.982;2022-11-25T12:31:16;6.35;99.99
71047;SHT31;58703;48.978;8.982;2022-11-25T12:36:44;6.34;99.99
71047;SHT31;58703;48.978;8.982;2022-11-25T12:39:54;6.48;99.99
71047;SHT31;58703;48.978;8.982;2022-11-25T12:42:21;6.64;99.99
71047;SHT31;58703;48.978;8.982;2022-11-25T12:47:29;6.49;99.99
71047;SHT31;58703;48.978;8.982;2022-11-25T12:49:55;6.59;99.76
71047;SHT31;58703;48.978;8.982;2022-11-25T13:02:53;6.64;99.99
71047;SHT31;58703;48.978;8.982;2022-11-25T13:17:10;6.95;99.90
71047;SHT31;58703;48.978;8.982;2022-11-25T13:19:37;7.01;99.72
71047;SHT31;58703;48.978;8.982;2022-11-25T13:22:04;7.16;99.54
71047;SHT31;58703;48.978;8.982;2022-11-25T13:24:40;7.44;99.99
71047;SHT31;58703;48.978;8.982;2022-11-25T13:29:54;7.86;99.23
71047;SHT31;58703;48.978;8.982;2022-11-25T13:32:28;7.83;99.06
71047;SHT31;58703;48.978;8.982;2022-11-25T13:37:51;7.65;99.02
71047;SHT31;58703;48.978;8.982;2022-11-25T13:40:40;7.68;99.01
71047;SHT31;58703;48.978;8.982;2022-11-25T13:43:19;7.68;99.17
71047;SHT31;58703;48.978;8.982;2022-11-25T13:45:45;7.82;99.34
71047;SHT31;58703;48.978;8.982;2022-11-25T13:48:12;7.92;98.96
71047;SHT31;58703;48.978;8.982;2022-11-25T13:50:39;8.06;99.38
71047;SHT31;58703;48.978;8.982;2022-11-25T13:53:18;8.12;99.21
71047;SHT31;58703;48.978;8.982;2022-11-25T13:55:45;8.19;98.68
71047;SHT31;58703;48.978;8.982;2022-11-25T14:01:03;7.96;99.50
71047;SHT31;58703;48.978;8.982;2022-11-25T14:06:10;8.13;98.84
71047;SHT31;58703;48.978;8.982;2022-11-25T14:08:54;8.12;98.48
71047;SHT31;58703;48.978;8.982;2022-11-25T14:14:43;8.09;98.17
71047;SHT31;58703;48.978;8.982;2022-11-25T14:25:53;8.59;94.25
71047;SHT31;58703;48.978;8.982;2022-11-25T14:30:54;8.68;93.57
71047;SHT31;58703;48.978;8.982;2022-11-25T14:33:33;8.63;95.09
71047;SHT31;58703;48.978;8.982;2022-11-25T14:36:06;8.53;96.19
71047;SHT31;58703;48.978;8.982;2022-11-25T14:38:44;8.59;95.47
71047;SHT31;58703;48.978;8.982;2022-11-25T14:41:27;8.59;96.05
71047;SHT31;58703;48.978;8.982;2022-11-25T14:44:03;8.52;96.29
71047;SHT31;58703;48.978;8.982;2022-11-25T14:46:30;8.46;96.98
71047;SHT31;58703;48.978;8.982;2022-11-25T14:48:58;8.39;97.34
71047;SHT31;58703;48.978;8.982;2022-11-25T14:51:26;8.34;97.41
71047;SHT31;58703;48.978;8.982;2022-11-25T14:53:52;8.39;97.92
71047;SHT31;58703;48.978;8.982;2022-11-25T14:56:25;8.44;97.97
71047;SHT31;58703;48.978;8.982;2022-11-25T14:58:53;8.49;97.81
71047;SHT31;58703;48.978;8.982;2022-11-25T15:01:26;8.34;97.70
71047;SHT31;58703;48.978;8.982;2022-11-25T15:06:39;8.23;96.72
71047;SHT31;58703;48.978;8.982;2022-11-25T15:09:26;8.36;97.17
71047;SHT31;58703;48.978;8.982;2022-11-25T15:11:56;8.37;97.39
71047;SHT31;58703;48.978;8.982;2022-11-25T15:14:25;8.26;98.00
71047;SHT31;58703;48.978;8.982;2022-11-25T15:16:52;8.26;98.06
71047;SHT31;58703;48.978;8.982;2022-11-25T15:19:21;8.19;97.85
71047;SHT31;58703;48.978;8.982;2022-11-25T15:21:55;8.14;97.81
71047;SHT31;58703;48.978;8.982;2022-11-25T15:24:30;7.91;98.02
71047;SHT31;58703;48.978;8.982;2022-11-25T15:27:00;7.91;96.69
71047;SHT31;58703;48.978;8.982;2022-11-25T15:29:29;7.81;97.95
71047;SHT31;58703;48.978;8.982;2022-11-25T15:31:57;7.64;98.15
71047;SHT31;58703;48.978;8.982;2022-11-25T15:34:23;7.57;98.08
71047;SHT31;58703;48.978;8.982;2022-11-25T15:36:50;7.58;97.19
71047;SHT31;58703;48.978;8.982;2022-11-25T15:41:53;8.23;91.73
71047;SHT31;58703;48.978;8.982;2022-11-25T15:44:29;8.28;91.37
71047;SHT31;58703;48.978;8.982;2022-11-25T15:46:58;8.13;92.48
71047;SHT31;58703;48.978;8.982;2022-11-25T15:49:25;7.74;95.07
71047;SHT31;58703;48.978;8.982;2022-11-25T15:52:04;7.28;96.17
71047;SHT31;58703;48.978;8.982;2022-11-25T15:54:42;6.97;97.39
71047;SHT31;58703;48.978;8.982;2022-11-25T15:57:16;6.69;98.96
71047;SHT31;58703;48.978;8.982;2022-11-25T16:10:21;6.41;99.61
71047;SHT31;58703;48.978;8.982;2022-11-25T16:18:41;5.87;99.99
71047;SHT31;58703;48.978;8.982;2022-11-25T16:21:20;5.66;99.99
71047;SHT31;58703;48.978;8.982;2022-11-25T16:23:52;5.47;99.99
71047;SHT31;58703;48.978;8.982;2022-11-25T16:29:01;5.46;99.99
71047;SHT31;58703;48.978;8.982;2022-11-25T16:31:32;5.61;99.99
71047;SHT31;58703;48.978;8.982;2022-11-25T16:34:15;5.53;99.99
71047;SHT31;58703;48.978;8.982;2022-11-25T16:36:41;5.44;99.99
71047;SHT31;58703;48.978;8.982;2022-11-25T16:39:07;5.39;99.99
71047;SHT31;58703;48.978;8.982;2022-11-25T16:41:34;5.25;99.99
71047;SHT31;58703;48.978;8.982;2022-11-25T16:44:00;5.19;99.99
71047;SHT31;58703;48.978;8.982;2022-11-25T16:46:26;5.08;99.99
71047;SHT31;58703;48.978;8.982;2022-11-25T16:48:51;4.95;99.99
71047;SHT31;58703;48.978;8.982;2022-11-25T16:51:21;4.92;99.99
71047;SHT31;58703;48.978;8.982;2022-11-25T16:53:49;4.87;99.99
71047;SHT31;58703;48.978;8.982;2022-11-25T16:56:37;4.75;99.99
71047;SHT31;58703;48.978;8.982;2022-11-25T16:59:04;4.71;99.99
71047;SHT31;58703;48.978;8.982;2022-11-25T17:01:30;4.56;99.99
71047;SHT31;58703;48.978;8.982;2022-11-25T17:03:57;4.48;99.99
71047;SHT31;58703;48.978;8.982;2022-11-25T17:06:25;4.36;99.99
71047;SHT31;58703;48.978;8.982;2022-11-25T17:08:51;4.27;99.99
71047;SHT31;58703;48.978;8.982;2022-11-25T17:11:39;4.27;99.99
71047;SHT31;58703;48.978;8.982;2022-11-25T17:14:09;4.34;99.99
71047;SHT31;58703;48.978;8.982;2022-11-25T17:16:36;4.33;99.99
71047;SHT31;58703;48.978;8.982;2022-11-25T17:19:02;4.27;99.99
71047;SHT31;58703;48.978;8.982;2022-11-25T17:21:27;4.36;99.99
71047;SHT31;58703;48.978;8.982;2022-11-25T17:23:57;4.33;99.99
71047;SHT31;58703;48.978;8.982;2022-11-25T17:26:28;4.41;99.99
71047;SHT31;58703;48.978;8.982;2022-11-25T17:28:56;4.41;99.99
71047;SHT31;58703;48.978;8.982;2022-11-25T17:31:29;4.40;99.99
71047;SHT31;58703;48.978;8.982;2022-11-25T17:33:56;4.36;99.99
71047;SHT31;58703;48.978;8.982;2022-11-25T17:36:22;4.50;99.99
71047;SHT31;58703;48.978;8.982;2022-11-25T17:38:47;4.58;99.99
71047;SHT31;58703;48.978;8.982;2022-11-25T17:41:18;4.53;99.99
71047;SHT31;58703;48.978;8.982;2022-11-25T17:43:45;4.37;99.99
71047;SHT31;58703;48.978;8.982;2022-11-25T17:46:14;4.50;99.99
71047;SHT31;58703;48.978;8.982;2022-11-25T17:48:40;4.69;99.99
71047;SHT31;58703;48.978;8.982;2022-11-25T17:51:09;4.79;99.99
71047;SHT31;58703;48.978;8.982;2022-11-25T17:53:36;4.77;99.99
71047;SHT31;58703;48.978;8.982;2022-11-25T17:58:44;4.37;99.99
71047;SHT31;58703;48.978;8.982;2022-11-25T18:01:10;4.26;99.99
71047;SHT31;58703;48.978;8.982;2022-11-25T18:03:35;4.29;99.99
71047;SHT31;58703;48.978;8.982;2022-11-25T18:06:01;4.75;99.99
71047;SHT31;58703;48.978;8.982;2022-11-25T18:08:28;5.25;99.99
71047;SHT31;58703;48.978;8.982;2022-11-25T18:10:54;5.20;99.99
71047;SHT31;58703;48.978;8.982;2022-11-25T18:13:20;5.09;99.99
71047;SHT31;58703;48.978;8.982;2022-11-25T18:15:46;4.79;99.99
71047;SHT31;58703;48.978;8.982;2022-11-25T18:18:22;4.65;99.99
71047;SHT31;58703;48.978;8.982;2022-11-25T18:20:49;4.51;99.99
71047;SHT31;58703;48.978;8.982;2022-11-25T18:23:14;4.33;99.99
71047;SHT31;58703;48.978;8.982;2022-11-25T18:25:41;4.23;99.99
71047;SHT31;58703;48.978;8.982;2022-11-25T18:28:06;4.09;99.99